Hauptseite
METAR-TAF:

METAR-TAF

Flughäfen :

Washington, Pennsylvania, Vereinigte Staaten

Breite: 40-08N, Länge: 080-17W, Höhe: 361 m

Beobachtung

Neuester Wetterbericht von vor 42 Minuten, um 03:56 UTC
Windstille
Temperatur -9°C
Luftfeuchtigkeit 92%
Luftdruck 1016 hPa
Sichtweite: 16.1 km
Himmel klar

METAR: KAFJ 210356Z AUTO 00000KT 10SM CLR M09/M10 A3000 RMK AO2 SLP176 T10891100 FZRANO

Zeit: 23:38 (04:38 UTC)


TAF: fehlend

Wetterbeobachtungen und Prognosen von mehr als 4000 Flughäfen (METAR und TAF Bericht).

Die verfügbaren Stationen werden durch gelbe und rote Markierungen auf der Karte dargestellt.

Führen Sie die Maus auf sie, um den Namen der Station zu sehen.

Darauf klicken, um die Beobachtung von Wetterbeobachtungen und Prognosen zu sehen.

Um die Karte zu ändern : klicken Sie auf den grünen Tasten mit einem schwarzen Kreuz Zum Vergrößern, auf den grünen Button mit einem Gedankenstrich zu verkleinern, oder auf die grünen Pfeile für benachbarte Karten.


METAR-TAF: